createdAt,value
2023-02-17T00:01:33.359Z,69.16
2023-02-17T00:04:01.822Z,69.13
2023-02-17T00:06:32.395Z,69.15
2023-02-17T00:09:00.761Z,69.25
2023-02-17T00:11:28.969Z,69.19
2023-02-17T00:13:57.224Z,69.41
2023-02-17T00:16:27.194Z,69.28
2023-02-17T00:18:57.861Z,69.21
2023-02-17T00:21:28.280Z,69.37
2023-02-17T00:23:57.972Z,69.39
2023-02-17T00:26:25.733Z,69.51
2023-02-17T00:28:53.704Z,69.60
2023-02-17T00:31:23.573Z,69.35
2023-02-17T00:33:54.383Z,69.44
2023-02-17T00:36:22.277Z,69.39
2023-02-17T00:38:50.185Z,69.58
2023-02-17T00:41:19.311Z,69.65
2023-02-17T00:43:48.193Z,69.67
2023-02-17T00:46:17.713Z,69.50
2023-02-17T00:48:46.652Z,69.62
2023-02-17T00:51:15.655Z,69.46
2023-02-17T00:53:43.967Z,69.47
2023-02-17T00:56:12.692Z,69.60
2023-02-17T00:58:41.656Z,69.59
2023-02-17T01:01:11.443Z,69.60
2023-02-17T01:03:41.051Z,69.41
2023-02-17T01:06:22.287Z,69.53
2023-02-17T01:08:50.774Z,69.79
2023-02-17T01:11:20.882Z,69.60
2023-02-17T01:13:49.096Z,69.68
2023-02-17T01:16:19.666Z,69.60
2023-02-17T01:18:48.124Z,69.48
2023-02-17T01:21:20.731Z,69.75
2023-02-17T01:23:50.203Z,69.82
2023-02-17T01:26:21.829Z,69.79
2023-02-17T01:28:50.967Z,69.75
2023-02-17T01:31:20.126Z,69.76
2023-02-17T01:33:48.414Z,69.72
2023-02-17T01:36:19.249Z,69.36
2023-02-17T01:38:47.627Z,69.53
2023-02-17T01:41:17.643Z,69.81
2023-02-17T01:44:10.620Z,69.69
2023-02-17T01:46:40.359Z,69.61
2023-02-17T01:49:38.558Z,69.80
2023-02-17T01:52:26.843Z,69.87
2023-02-17T01:54:59.974Z,70.01
2023-02-17T01:57:32.439Z,69.92
2023-02-17T02:00:00.842Z,69.77
2023-02-17T02:02:31.143Z,69.84
2023-02-17T02:05:00.525Z,69.86
2023-02-17T02:07:40.959Z,70.11
2023-02-17T02:10:10.678Z,70.03
2023-02-17T02:12:40.951Z,69.89
2023-02-17T02:15:19.456Z,69.90
2023-02-17T02:18:14.516Z,69.76
2023-02-17T02:21:19.824Z,69.88
2023-02-17T02:23:58.159Z,69.99
2023-02-17T02:27:04.237Z,70.00
2023-02-17T02:29:56.692Z,70.16
2023-02-17T02:32:30.197Z,70.26
2023-02-17T02:35:08.250Z,70.13
2023-02-17T02:37:43.547Z,69.96
2023-02-17T02:40:13.531Z,69.95
2023-02-17T02:42:42.317Z,70.22
2023-02-17T02:45:11.103Z,70.07
2023-02-17T02:47:45.184Z,70.13
2023-02-17T02:50:25.171Z,70.29
2023-02-17T02:53:04.768Z,70.23
2023-02-17T02:55:48.970Z,70.01
2023-02-17T02:58:43.105Z,70.09
2023-02-17T03:01:14.314Z,69.97
2023-02-17T03:04:00.919Z,70.03
2023-02-17T03:06:45.527Z,70.00
2023-02-17T03:09:21.019Z,70.10
2023-02-17T03:11:50.445Z,70.03
2023-02-17T03:14:20.975Z,70.07
2023-02-17T03:16:50.766Z,70.22
2023-02-17T03:19:22.584Z,70.08
2023-02-17T03:21:57.284Z,70.18
2023-02-17T03:24:25.624Z,69.94
2023-02-17T03:26:53.396Z,69.96
2023-02-17T03:29:21.229Z,70.02
2023-02-17T03:31:49.271Z,70.00
2023-02-17T03:34:17.518Z,69.89
2023-02-17T03:36:45.825Z,70.20
2023-02-17T03:39:13.600Z,69.78
2023-02-17T03:41:41.428Z,70.01
2023-02-17T03:44:09.254Z,70.01
2023-02-17T03:46:40.657Z,70.24
2023-02-17T03:49:08.868Z,70.21
2023-02-17T03:51:37.218Z,69.81
2023-02-17T03:54:05.192Z,70.13
2023-02-17T03:56:33.155Z,70.07
2023-02-17T03:59:00.978Z,69.97
2023-02-17T04:01:29.303Z,69.88
2023-02-17T04:03:57.791Z,70.27
2023-02-17T04:06:25.725Z,69.85
2023-02-17T04:08:53.598Z,69.84
2023-02-17T04:11:21.364Z,69.89
2023-02-17T04:13:49.155Z,70.00
2023-02-17T04:16:18.326Z,70.03
2023-02-17T04:18:46.878Z,69.59
2023-02-17T04:21:14.784Z,69.81
2023-02-17T04:23:42.633Z,70.01
2023-02-17T04:26:10.389Z,70.07
2023-02-17T04:28:40.920Z,69.91
2023-02-17T04:31:09.420Z,69.76
2023-02-17T04:33:38.073Z,69.74
2023-02-17T04:36:06.507Z,69.79
2023-02-17T04:38:34.916Z,69.76
2023-02-17T04:41:03.308Z,70.00
2023-02-17T04:43:31.631Z,69.75
2023-02-17T04:45:59.453Z,69.89
2023-02-17T04:48:27.238Z,70.00
2023-02-17T04:50:55.018Z,69.80
2023-02-17T04:53:23.289Z,69.78
2023-02-17T04:55:52.960Z,70.11
2023-02-17T04:58:21.261Z,70.02
2023-02-17T05:00:50.436Z,70.16
2023-02-17T05:03:19.485Z,70.11
2023-02-17T05:05:47.396Z,70.28
2023-02-17T05:08:15.256Z,70.00
2023-02-17T05:10:43.068Z,70.06
2023-02-17T05:13:10.852Z,69.82
2023-02-17T05:15:38.754Z,70.05
2023-02-17T05:18:06.590Z,69.89
2023-02-17T05:20:34.373Z,69.97
2023-02-17T05:23:02.143Z,69.95
2023-02-17T05:25:29.948Z,69.93
2023-02-17T05:27:57.730Z,69.97
2023-02-17T05:30:25.817Z,70.05
2023-02-17T05:32:53.863Z,69.75
2023-02-17T05:35:21.914Z,70.22
2023-02-17T05:37:49.702Z,69.87
2023-02-17T05:40:17.563Z,70.01
2023-02-17T05:42:45.399Z,69.90
2023-02-17T05:45:13.275Z,69.91
2023-02-17T05:47:41.026Z,70.02
2023-02-17T05:50:09.028Z,70.11
2023-02-17T05:52:36.847Z,69.83
2023-02-17T05:55:05.115Z,70.02
2023-02-17T05:57:33.159Z,69.89
2023-02-17T06:00:00.937Z,69.83
2023-02-17T06:02:28.847Z,69.99
2023-02-17T06:04:56.767Z,69.74
2023-02-17T06:07:24.748Z,69.77
2023-02-17T06:09:52.500Z,69.97
2023-02-17T06:12:20.282Z,69.88
2023-02-17T06:14:48.602Z,69.84
2023-02-17T06:17:17.072Z,69.94
2023-02-17T06:19:44.842Z,69.85
2023-02-17T06:22:12.585Z,69.99
2023-02-17T06:24:40.322Z,70.03
2023-02-17T06:27:08.096Z,70.22
2023-02-17T06:29:36.393Z,70.13
2023-02-17T06:32:05.040Z,70.15
2023-02-17T06:34:32.847Z,70.18
2023-02-17T06:37:00.649Z,70.07
2023-02-17T06:39:28.405Z,70.29
2023-02-17T06:41:56.180Z,69.95
2023-02-17T06:44:24.428Z,70.17
2023-02-17T06:46:52.852Z,70.33
2023-02-17T06:49:20.620Z,70.06
2023-02-17T06:51:48.433Z,70.11
2023-02-17T06:54:16.712Z,70.09
2023-02-17T06:56:44.492Z,70.16
2023-02-17T06:59:13.010Z,70.31
2023-02-17T07:01:41.274Z,69.98
2023-02-17T07:04:09.068Z,69.92
2023-02-17T07:06:36.893Z,69.93
2023-02-17T07:09:04.682Z,69.93
2023-02-17T07:11:33.014Z,69.92
2023-02-17T07:14:01.520Z,70.19
2023-02-17T07:16:29.989Z,70.23
2023-02-17T07:18:57.783Z,69.89
2023-02-17T07:21:25.622Z,70.02
2023-02-17T07:23:53.423Z,70.01
2023-02-17T07:26:21.171Z,70.14
2023-02-17T07:28:49.521Z,70.22
2023-02-17T07:31:18.539Z,69.75
2023-02-17T07:33:48.232Z,70.12
2023-02-17T07:36:17.757Z,69.77
2023-02-17T07:38:45.668Z,69.89
2023-02-17T07:41:16.457Z,70.03
2023-02-17T07:43:45.827Z,69.67
2023-02-17T07:46:14.824Z,69.71
2023-02-17T07:48:42.958Z,69.81
2023-02-17T07:51:16.949Z,69.86
2023-02-17T07:53:44.917Z,69.68
2023-02-17T07:56:15.493Z,69.57
2023-02-17T07:58:45.764Z,69.82
2023-02-17T08:01:21.041Z,69.95
2023-02-17T08:03:49.658Z,69.59
2023-02-17T08:06:23.598Z,69.47
2023-02-17T08:09:11.689Z,69.58
2023-02-17T08:12:06.433Z,69.49
2023-02-17T08:14:34.308Z,69.53
2023-02-17T08:17:02.699Z,69.52
2023-02-17T08:19:46.544Z,69.57
2023-02-17T08:22:17.647Z,69.41
2023-02-17T08:24:45.611Z,69.37
2023-02-17T08:27:17.352Z,69.50
2023-02-17T08:29:46.597Z,69.39
2023-02-17T08:32:16.626Z,69.39
2023-02-17T08:34:44.644Z,69.39
2023-02-17T08:37:12.933Z,69.40
2023-02-17T08:39:40.697Z,69.32
2023-02-17T08:42:08.569Z,69.38
2023-02-17T08:44:37.794Z,69.09
2023-02-17T08:47:07.243Z,69.23
2023-02-17T08:49:36.013Z,69.21
2023-02-17T08:52:04.204Z,69.34
2023-02-17T08:54:32.720Z,69.45
2023-02-17T08:57:00.597Z,68.93
2023-02-17T08:59:28.942Z,68.96
2023-02-17T09:01:57.875Z,69.18
2023-02-17T09:04:26.143Z,69.19
2023-02-17T09:06:58.546Z,69.05
2023-02-17T09:09:27.476Z,68.91
2023-02-17T09:11:57.736Z,69.01
2023-02-17T09:14:25.995Z,69.00
2023-02-17T09:16:57.539Z,68.84
2023-02-17T09:19:31.581Z,68.73
2023-02-17T09:21:59.398Z,68.73
2023-02-17T09:24:27.228Z,68.83
2023-02-17T09:26:55.198Z,68.48
2023-02-17T09:29:23.100Z,68.69
2023-02-17T09:31:51.657Z,68.44
2023-02-17T09:34:20.021Z,68.72
2023-02-17T09:36:48.169Z,68.76
2023-02-17T09:39:16.687Z,68.49
2023-02-17T09:41:55.418Z,68.45
2023-02-17T09:44:26.811Z,68.63
2023-02-17T09:47:03.140Z,68.43
2023-02-17T09:49:43.348Z,68.31
2023-02-17T09:52:16.886Z,68.25
2023-02-17T09:55:04.290Z,68.14
2023-02-17T09:58:02.414Z,67.90
2023-02-17T10:00:39.739Z,68.25
2023-02-17T10:03:31.302Z,67.79
2023-02-17T10:06:32.902Z,68.21
2023-02-17T10:09:14.038Z,68.01
2023-02-17T10:12:00.899Z,68.09
2023-02-17T10:14:43.915Z,68.26
2023-02-17T10:17:47.598Z,68.12
2023-02-17T10:20:18.151Z,67.83
2023-02-17T10:22:51.377Z,67.98
2023-02-17T10:25:33.834Z,68.06
2023-02-17T10:28:22.094Z,67.93
2023-02-17T10:31:04.271Z,67.77
2023-02-17T10:33:48.207Z,67.70
2023-02-17T10:36:18.973Z,67.67
2023-02-17T10:38:53.166Z,67.61
2023-02-17T10:41:27.208Z,67.64
2023-02-17T10:43:55.254Z,67.26
2023-02-17T10:46:31.673Z,67.41
2023-02-17T10:49:00.140Z,67.50
2023-02-17T10:51:31.215Z,67.55
2023-02-17T10:54:19.746Z,67.33
2023-02-17T10:56:52.304Z,67.45
2023-02-17T10:59:41.715Z,67.51
2023-02-17T11:02:17.812Z,67.44
2023-02-17T11:04:49.793Z,67.31
2023-02-17T11:07:22.522Z,67.37
2023-02-17T11:09:53.627Z,67.27
2023-02-17T11:12:26.878Z,66.99
2023-02-17T11:14:56.484Z,66.73
2023-02-17T11:17:45.231Z,66.94
2023-02-17T11:20:13.288Z,66.70
2023-02-17T11:22:47.639Z,66.78
2023-02-17T11:25:37.871Z,66.78
2023-02-17T11:28:11.321Z,66.73
2023-02-17T11:30:41.723Z,66.88
2023-02-17T11:33:15.523Z,66.68
2023-02-17T11:35:54.545Z,66.48
2023-02-17T11:38:25.937Z,66.24
2023-02-17T11:41:07.018Z,66.19
2023-02-17T11:43:36.206Z,66.23
2023-02-17T11:46:36.898Z,66.15
2023-02-17T11:49:35.192Z,66.13
2023-02-17T11:52:23.990Z,65.85
2023-02-17T11:55:19.808Z,66.16
2023-02-17T11:57:59.429Z,66.07
2023-02-17T12:00:54.492Z,65.87
2023-02-17T12:03:28.479Z,65.93
2023-02-17T12:06:13.904Z,65.88
2023-02-17T12:08:51.316Z,65.67
2023-02-17T12:11:32.292Z,65.81
2023-02-17T12:14:06.273Z,65.72
2023-02-17T12:16:52.938Z,65.87
2023-02-17T12:19:30.385Z,65.68
2023-02-17T12:22:22.603Z,65.59
2023-02-17T12:25:04.397Z,65.75
2023-02-17T12:28:10.920Z,65.54
2023-02-17T12:30:39.623Z,65.48
2023-02-17T12:33:35.146Z,65.54
2023-02-17T12:36:08.572Z,65.67
2023-02-17T12:38:49.854Z,65.60
2023-02-17T12:41:27.574Z,65.52
2023-02-17T12:44:00.358Z,65.50
2023-02-17T12:46:43.014Z,65.61
2023-02-17T12:49:20.250Z,65.57
2023-02-17T12:51:57.999Z,65.55
2023-02-17T12:54:38.642Z,65.53
2023-02-17T12:57:06.369Z,65.51
2023-02-17T12:59:40.359Z,65.68
2023-02-17T13:02:17.300Z,65.56
2023-02-17T13:04:49.353Z,65.77
2023-02-17T13:07:38.801Z,65.72
2023-02-17T13:10:08.101Z,65.80
2023-02-17T13:12:40.738Z,65.94
2023-02-17T13:15:46.049Z,66.02
2023-02-17T13:18:35.197Z,65.89
2023-02-17T13:21:33.704Z,65.81
2023-02-17T13:24:30.688Z,65.90
2023-02-17T13:27:10.637Z,65.85
2023-02-17T13:29:39.280Z,65.90
2023-02-17T13:32:12.364Z,66.07
2023-02-17T13:34:43.429Z,65.75
2023-02-17T13:37:33.368Z,65.97
2023-02-17T13:40:23.422Z,66.16
2023-02-17T13:42:54.564Z,66.03
2023-02-17T13:45:30.925Z,66.29
2023-02-17T13:48:01.439Z,66.30
2023-02-17T13:50:29.352Z,66.30
2023-02-17T13:53:00.405Z,66.38
2023-02-17T13:55:28.442Z,66.34
2023-02-17T13:57:59.367Z,66.43
2023-02-17T14:00:28.949Z,66.41
2023-02-17T14:03:19.223Z,66.47
2023-02-17T14:05:49.412Z,66.56
2023-02-17T14:08:23.749Z,66.40
2023-02-17T14:10:52.282Z,66.53
2023-02-17T14:13:20.508Z,66.53
2023-02-17T14:16:00.266Z,66.75
2023-02-17T14:18:36.807Z,66.66
2023-02-17T14:21:11.826Z,66.39
2023-02-17T14:23:49.175Z,66.60
2023-02-17T14:26:28.988Z,66.66
2023-02-17T14:29:05.137Z,66.77
2023-02-17T14:31:42.212Z,66.65
2023-02-17T14:34:37.954Z,66.78
2023-02-17T14:37:08.780Z,67.01
2023-02-17T14:39:37.209Z,66.87
2023-02-17T14:42:05.818Z,66.76
2023-02-17T14:44:34.270Z,66.68
2023-02-17T14:47:02.610Z,66.80
2023-02-17T14:49:30.474Z,66.86
2023-02-17T14:51:58.697Z,67.02
2023-02-17T14:54:30.373Z,66.89
2023-02-17T14:57:12.593Z,66.91
2023-02-17T14:59:40.904Z,66.89
2023-02-17T15:02:18.290Z,67.00
2023-02-17T15:04:47.388Z,67.03
2023-02-17T15:07:18.276Z,67.18
2023-02-17T15:09:48.536Z,67.19
2023-02-17T15:12:19.752Z,67.19
2023-02-17T15:14:48.507Z,67.36
2023-02-17T15:17:16.566Z,67.35
2023-02-17T15:19:44.996Z,67.49
2023-02-17T15:22:14.420Z,67.68
2023-02-17T15:24:42.758Z,67.28
2023-02-17T15:27:14.749Z,67.49
2023-02-17T15:29:43.383Z,67.61
2023-02-17T15:32:20.177Z,67.55
2023-02-17T15:34:48.534Z,67.56
2023-02-17T15:37:16.258Z,67.54
2023-02-17T15:39:44.967Z,67.84
2023-02-17T15:42:14.787Z,67.88
2023-02-17T15:44:47.757Z,67.82
2023-02-17T15:47:20.687Z,68.04
2023-02-17T15:49:48.519Z,67.80
2023-02-17T15:52:17.061Z,67.99
2023-02-17T15:54:45.503Z,68.20
2023-02-17T15:57:28.751Z,68.19
2023-02-17T16:00:00.618Z,68.19
2023-02-17T16:02:29.386Z,68.25
2023-02-17T16:04:57.336Z,68.23
2023-02-17T16:07:26.538Z,68.15
2023-02-17T16:09:56.000Z,68.35
2023-02-17T16:12:27.423Z,68.32
2023-02-17T16:14:56.910Z,68.21
2023-02-17T16:17:26.581Z,68.54
2023-02-17T16:19:56.592Z,68.51
2023-02-17T16:22:24.460Z,68.33
2023-02-17T16:24:52.342Z,68.52
2023-02-17T16:27:20.512Z,68.48
2023-02-17T16:29:49.215Z,68.43
2023-02-17T16:32:19.916Z,68.38
2023-02-17T16:34:51.204Z,68.49
2023-02-17T16:37:19.567Z,68.47
2023-02-17T16:39:47.518Z,68.57
